This is the latest recevied weather packets stored in our database for station/object LRTC. If no packets are shown the sender has not sent any weather packets the latest 1 day(s).
| Time | Temp. | Humidity | Pressure | Rain* | Wind** | Luminosity | Snow |
|---|---|---|---|---|---|---|---|
| 1778096048 | 8.89° C | 100% | 1017 hPa | - | - | - | - |
| 1778094225 | 8.89° C | 100% | 1017 hPa | - | - | - | - |
| 1778091525 | 11.11° C | 88% | 1016 hPa | - | - | - | - |
| 1778089725 | 11.11° C | 88% | 1016 hPa | - | - | - | - |
| 1778087925 | 13.89° C | 77% | 1016 hPa | - | - | - | - |
| 1778084325 | 17.22° C | 59% | 1016 hPa | - | - | - | - |
| 1778083425 | 17.22° C | 59% | 1016 hPa | - | - | - | - |
| 1778078036 | 18.89° C | 49% | 1016 hPa | - | - | - | - |
| 1778069925 | 20° C | 43% | 1016 hPa | - | - | - | - |
| 1778067225 | 20° C | 46% | 1016 hPa | - | - | - | - |
| 1778065424 | 20° C | 46% | 1017 hPa | - | - | - | - |
| 1778064525 | 20° C | 46% | 1017 hPa | - | - | - | - |
| 1778063625 | 20° C | 46% | 1017 hPa | - | - | - | - |
| 1778062725 | 20° C | 46% | 1016 hPa | - | - | - | - |
| 1778060925 | 20° C | 43% | 1017 hPa | - | - | - | - |
| 1778060024 | 20° C | 43% | 1017 hPa | - | - | - | - |
| 1778057325 | 20° C | 43% | 1016 hPa | - | - | - | - |
| 1778055521 | 18.89° C | 52% | 1016 hPa | - | - | - | - |
| 1778053725 | 18.89° C | 46% | 1016 hPa | - | - | - | - |
| 1778052825 | 18.89° C | 46% | 1016 hPa | - | - | - | - |
| 1778051924 | 17.78° C | 43% | 1016 hPa | - | - | - | - |
| 1778051024 | 17.78° C | 43% | 1016 hPa | - | - | - | - |
| 1778049224 | 17.22° C | 42% | 1016 hPa | - | - | - | - |
| 1778048325 | 12.78° C | 67% | 1016 hPa | - | - | - | - |
| 1778047426 | 12.78° C | 67% | 1016 hPa | - | - | - | - |
* Rain since midnight (hover to see other rain measurements)
** Current wind speed in m/s (hover to see current wind gust speed)